sensor_id;sensor_type;location;lat;lon;timestamp;temperature;humidity
4081;DHT22;2055;50.074;8.436;2023-06-10T00:01:29;20.00;99.90
4081;DHT22;2055;50.074;8.436;2023-06-10T00:03:55;20.30;99.90
4081;DHT22;2055;50.074;8.436;2023-06-10T00:06:21;20.10;99.90
4081;DHT22;2055;50.074;8.436;2023-06-10T00:08:50;20.00;99.90
4081;DHT22;2055;50.074;8.436;2023-06-10T00:11:16;20.00;99.90
4081;DHT22;2055;50.074;8.436;2023-06-10T00:13:42;20.00;99.90
4081;DHT22;2055;50.074;8.436;2023-06-10T00:16:08;20.10;99.90
4081;DHT22;2055;50.074;8.436;2023-06-10T00:18:33;20.40;99.90
4081;DHT22;2055;50.074;8.436;2023-06-10T00:21:02;20.20;99.90
4081;DHT22;2055;50.074;8.436;2023-06-10T00:23:30;20.20;99.90
4081;DHT22;2055;50.074;8.436;2023-06-10T00:26:02;20.20;99.90
4081;DHT22;2055;50.074;8.436;2023-06-10T00:28:28;20.30;99.90
4081;DHT22;2055;50.074;8.436;2023-06-10T00:30:53;20.20;99.90
4081;DHT22;2055;50.074;8.436;2023-06-10T00:33:19;20.20;99.90
4081;DHT22;2055;50.074;8.436;2023-06-10T00:35:46;20.10;99.90
4081;DHT22;2055;50.074;8.436;2023-06-10T00:38:13;20.20;99.90
4081;DHT22;2055;50.074;8.436;2023-06-10T00:40:40;20.20;99.90
4081;DHT22;2055;50.074;8.436;2023-06-10T00:43:08;20.10;99.90
4081;DHT22;2055;50.074;8.436;2023-06-10T00:45:34;20.10;99.90
4081;DHT22;2055;50.074;8.436;2023-06-10T00:48:00;20.70;99.90
4081;DHT22;2055;50.074;8.436;2023-06-10T00:50:26;20.10;99.90
4081;DHT22;2055;50.074;8.436;2023-06-10T00:52:53;20.10;99.90
4081;DHT22;2055;50.074;8.436;2023-06-10T00:55:20;20.10;99.90
4081;DHT22;2055;50.074;8.436;2023-06-10T00:57:46;20.10;99.90
4081;DHT22;2055;50.074;8.436;2023-06-10T01:00:14;22.80;99.90
4081;DHT22;2055;50.074;8.436;2023-06-10T01:02:40;20.10;99.90
4081;DHT22;2055;50.074;8.436;2023-06-10T01:05:06;20.10;99.90
4081;DHT22;2055;50.074;8.436;2023-06-10T01:07:50;20.00;99.90
4081;DHT22;2055;50.074;8.436;2023-06-10T01:10:36;20.00;99.90
4081;DHT22;2055;50.074;8.436;2023-06-10T01:13:03;20.00;99.90
4081;DHT22;2055;50.074;8.436;2023-06-10T01:15:33;19.90;99.90
4081;DHT22;2055;50.074;8.436;2023-06-10T01:18:07;19.90;99.90
4081;DHT22;2055;50.074;8.436;2023-06-10T01:20:41;19.90;99.90
4081;DHT22;2055;50.074;8.436;2023-06-10T01:23:09;19.90;99.90
4081;DHT22;2055;50.074;8.436;2023-06-10T01:25:37;19.90;99.90
4081;DHT22;2055;50.074;8.436;2023-06-10T01:28:27;20.00;99.90
4081;DHT22;2055;50.074;8.436;2023-06-10T01:31:13;19.80;99.90
4081;DHT22;2055;50.074;8.436;2023-06-10T01:33:47;19.80;99.90
4081;DHT22;2055;50.074;8.436;2023-06-10T01:36:15;20.10;99.90
4081;DHT22;2055;50.074;8.436;2023-06-10T01:38:43;19.90;99.90
4081;DHT22;2055;50.074;8.436;2023-06-10T01:41:13;19.80;99.90
4081;DHT22;2055;50.074;8.436;2023-06-10T01:43:39;19.80;99.90
4081;DHT22;2055;50.074;8.436;2023-06-10T01:46:05;19.80;99.90
4081;DHT22;2055;50.074;8.436;2023-06-10T01:48:32;19.70;99.90
4081;DHT22;2055;50.074;8.436;2023-06-10T01:50:58;19.70;99.90
4081;DHT22;2055;50.074;8.436;2023-06-10T01:53:24;19.70;99.90
4081;DHT22;2055;50.074;8.436;2023-06-10T01:55:49;19.80;99.90
4081;DHT22;2055;50.074;8.436;2023-06-10T01:58:16;19.80;99.90
4081;DHT22;2055;50.074;8.436;2023-06-10T02:00:41;19.80;99.90
4081;DHT22;2055;50.074;8.436;2023-06-10T02:03:07;19.70;99.90
4081;DHT22;2055;50.074;8.436;2023-06-10T02:05:32;19.70;99.90
4081;DHT22;2055;50.074;8.436;2023-06-10T02:07:58;19.70;99.90
4081;DHT22;2055;50.074;8.436;2023-06-10T02:10:24;19.60;99.90
4081;DHT22;2055;50.074;8.436;2023-06-10T02:12:50;19.70;99.90
4081;DHT22;2055;50.074;8.436;2023-06-10T02:15:15;19.70;99.90
4081;DHT22;2055;50.074;8.436;2023-06-10T02:17:41;19.60;99.90
4081;DHT22;2055;50.074;8.436;2023-06-10T02:20:07;19.60;99.90
4081;DHT22;2055;50.074;8.436;2023-06-10T02:22:36;19.70;99.90
4081;DHT22;2055;50.074;8.436;2023-06-10T02:25:01;19.60;99.90
4081;DHT22;2055;50.074;8.436;2023-06-10T02:27:27;19.60;99.90
4081;DHT22;2055;50.074;8.436;2023-06-10T02:29:52;19.60;99.90
4081;DHT22;2055;50.074;8.436;2023-06-10T02:32:18;19.60;99.90
4081;DHT22;2055;50.074;8.436;2023-06-10T02:34:43;19.50;99.90
4081;DHT22;2055;50.074;8.436;2023-06-10T02:37:09;19.60;99.90
4081;DHT22;2055;50.074;8.436;2023-06-10T02:39:35;19.50;99.90
4081;DHT22;2055;50.074;8.436;2023-06-10T02:42:00;19.60;99.90
4081;DHT22;2055;50.074;8.436;2023-06-10T02:44:26;19.60;99.90
4081;DHT22;2055;50.074;8.436;2023-06-10T02:46:51;19.60;99.90
4081;DHT22;2055;50.074;8.436;2023-06-10T02:49:17;19.60;99.90
4081;DHT22;2055;50.074;8.436;2023-06-10T02:51:43;19.60;99.90
4081;DHT22;2055;50.074;8.436;2023-06-10T02:54:08;19.60;99.90
4081;DHT22;2055;50.074;8.436;2023-06-10T02:56:34;19.60;99.90
4081;DHT22;2055;50.074;8.436;2023-06-10T02:59:00;20.10;99.90
4081;DHT22;2055;50.074;8.436;2023-06-10T03:01:26;19.60;99.90
4081;DHT22;2055;50.074;8.436;2023-06-10T03:03:51;19.40;99.90
4081;DHT22;2055;50.074;8.436;2023-06-10T03:06:18;19.20;99.90
4081;DHT22;2055;50.074;8.436;2023-06-10T03:08:43;19.10;99.90
4081;DHT22;2055;50.074;8.436;2023-06-10T03:11:11;19.10;99.90
4081;DHT22;2055;50.074;8.436;2023-06-10T03:13:38;19.10;99.90
4081;DHT22;2055;50.074;8.436;2023-06-10T03:16:03;19.10;99.90
4081;DHT22;2055;50.074;8.436;2023-06-10T03:18:30;19.00;99.90
4081;DHT22;2055;50.074;8.436;2023-06-10T03:20:55;19.00;99.90
4081;DHT22;2055;50.074;8.436;2023-06-10T03:23:22;19.00;99.90
4081;DHT22;2055;50.074;8.436;2023-06-10T03:25:51;18.90;99.90
4081;DHT22;2055;50.074;8.436;2023-06-10T03:28:16;18.70;99.90
4081;DHT22;2055;50.074;8.436;2023-06-10T03:30:42;18.60;99.90
4081;DHT22;2055;50.074;8.436;2023-06-10T03:33:07;18.50;99.90
4081;DHT22;2055;50.074;8.436;2023-06-10T03:35:33;18.50;99.90
4081;DHT22;2055;50.074;8.436;2023-06-10T03:38:00;18.50;99.90
4081;DHT22;2055;50.074;8.436;2023-06-10T03:40:25;18.60;99.90
4081;DHT22;2055;50.074;8.436;2023-06-10T03:42:51;18.30;99.90
4081;DHT22;2055;50.074;8.436;2023-06-10T03:45:16;18.40;99.90
4081;DHT22;2055;50.074;8.436;2023-06-10T03:47:42;18.40;99.90
4081;DHT22;2055;50.074;8.436;2023-06-10T03:50:09;18.60;99.90
4081;DHT22;2055;50.074;8.436;2023-06-10T03:52:35;18.30;99.90
4081;DHT22;2055;50.074;8.436;2023-06-10T03:55:01;18.40;99.90
4081;DHT22;2055;50.074;8.436;2023-06-10T03:57:27;18.40;99.90
4081;DHT22;2055;50.074;8.436;2023-06-10T03:59:54;18.50;99.90
4081;DHT22;2055;50.074;8.436;2023-06-10T04:02:20;18.60;99.90
4081;DHT22;2055;50.074;8.436;2023-06-10T04:04:46;18.70;99.90
4081;DHT22;2055;50.074;8.436;2023-06-10T04:07:12;18.70;99.90
4081;DHT22;2055;50.074;8.436;2023-06-10T04:09:37;18.70;99.90
4081;DHT22;2055;50.074;8.436;2023-06-10T04:12:04;18.70;99.90
4081;DHT22;2055;50.074;8.436;2023-06-10T04:14:33;18.60;99.90
4081;DHT22;2055;50.074;8.436;2023-06-10T04:16:59;18.70;99.90
4081;DHT22;2055;50.074;8.436;2023-06-10T04:19:25;18.70;99.90
4081;DHT22;2055;50.074;8.436;2023-06-10T04:21:51;18.70;99.90
4081;DHT22;2055;50.074;8.436;2023-06-10T04:24:16;18.70;99.90
4081;DHT22;2055;50.074;8.436;2023-06-10T04:26:42;18.70;99.90
4081;DHT22;2055;50.074;8.436;2023-06-10T04:29:07;18.70;99.90
4081;DHT22;2055;50.074;8.436;2023-06-10T04:31:33;18.80;99.90
4081;DHT22;2055;50.074;8.436;2023-06-10T04:33:59;18.90;99.90
4081;DHT22;2055;50.074;8.436;2023-06-10T04:36:26;19.00;99.90
4081;DHT22;2055;50.074;8.436;2023-06-10T04:38:51;19.00;99.90
4081;DHT22;2055;50.074;8.436;2023-06-10T04:41:17;19.20;99.90
4081;DHT22;2055;50.074;8.436;2023-06-10T04:43:43;19.30;99.90
4081;DHT22;2055;50.074;8.436;2023-06-10T04:46:08;19.40;99.90
4081;DHT22;2055;50.074;8.436;2023-06-10T04:48:35;19.60;99.90
4081;DHT22;2055;50.074;8.436;2023-06-10T04:51:01;19.70;99.90
4081;DHT22;2055;50.074;8.436;2023-06-10T04:53:26;19.80;99.90
4081;DHT22;2055;50.074;8.436;2023-06-10T04:55:53;19.80;99.90
4081;DHT22;2055;50.074;8.436;2023-06-10T04:58:19;20.10;99.90
4081;DHT22;2055;50.074;8.436;2023-06-10T05:00:45;20.00;99.90
4081;DHT22;2055;50.074;8.436;2023-06-10T05:03:10;20.10;99.90
4081;DHT22;2055;50.074;8.436;2023-06-10T05:05:36;20.20;99.90
4081;DHT22;2055;50.074;8.436;2023-06-10T05:08:01;20.20;99.90
4081;DHT22;2055;50.074;8.436;2023-06-10T05:10:27;20.20;99.90
4081;DHT22;2055;50.074;8.436;2023-06-10T05:12:53;20.30;99.90
4081;DHT22;2055;50.074;8.436;2023-06-10T05:15:18;20.40;99.90
4081;DHT22;2055;50.074;8.436;2023-06-10T05:17:44;20.50;99.90
4081;DHT22;2055;50.074;8.436;2023-06-10T05:20:10;20.60;99.90
4081;DHT22;2055;50.074;8.436;2023-06-10T05:22:35;20.70;99.90
4081;DHT22;2055;50.074;8.436;2023-06-10T05:25:01;20.70;99.90
4081;DHT22;2055;50.074;8.436;2023-06-10T05:27:26;20.80;99.90
4081;DHT22;2055;50.074;8.436;2023-06-10T05:29:52;20.90;99.90
4081;DHT22;2055;50.074;8.436;2023-06-10T05:32:18;21.00;99.90
4081;DHT22;2055;50.074;8.436;2023-06-10T05:34:43;21.10;99.90
4081;DHT22;2055;50.074;8.436;2023-06-10T05:37:09;21.20;99.90
4081;DHT22;2055;50.074;8.436;2023-06-10T05:39:36;21.30;99.90
4081;DHT22;2055;50.074;8.436;2023-06-10T05:42:06;21.30;99.90
4081;DHT22;2055;50.074;8.436;2023-06-10T05:44:32;21.40;99.90
4081;DHT22;2055;50.074;8.436;2023-06-10T05:46:57;21.50;99.90
4081;DHT22;2055;50.074;8.436;2023-06-10T05:49:23;21.60;99.90
4081;DHT22;2055;50.074;8.436;2023-06-10T05:51:48;21.70;99.90
4081;DHT22;2055;50.074;8.436;2023-06-10T05:54:14;21.80;99.90
4081;DHT22;2055;50.074;8.436;2023-06-10T05:56:39;21.80;99.90
4081;DHT22;2055;50.074;8.436;2023-06-10T05:59:05;21.90;99.90
4081;DHT22;2055;50.074;8.436;2023-06-10T06:01:30;21.90;99.90
4081;DHT22;2055;50.074;8.436;2023-06-10T06:03:56;22.00;99.90
4081;DHT22;2055;50.074;8.436;2023-06-10T06:06:21;22.10;99.90
4081;DHT22;2055;50.074;8.436;2023-06-10T06:08:47;22.10;99.90
4081;DHT22;2055;50.074;8.436;2023-06-10T06:11:13;22.10;99.90
4081;DHT22;2055;50.074;8.436;2023-06-10T06:13:39;21.90;99.90
4081;DHT22;2055;50.074;8.436;2023-06-10T06:16:04;22.20;99.90
4081;DHT22;2055;50.074;8.436;2023-06-10T06:18:30;22.30;99.90
4081;DHT22;2055;50.074;8.436;2023-06-10T06:20:55;22.30;99.90
4081;DHT22;2055;50.074;8.436;2023-06-10T06:23:21;22.30;99.90
4081;DHT22;2055;50.074;8.436;2023-06-10T06:25:46;22.40;99.90
4081;DHT22;2055;50.074;8.436;2023-06-10T06:28:12;22.40;99.90
4081;DHT22;2055;50.074;8.436;2023-06-10T06:30:37;22.50;99.90
4081;DHT22;2055;50.074;8.436;2023-06-10T06:33:03;22.60;99.90
4081;DHT22;2055;50.074;8.436;2023-06-10T06:35:31;22.70;99.90
4081;DHT22;2055;50.074;8.436;2023-06-10T06:37:57;22.70;99.90
4081;DHT22;2055;50.074;8.436;2023-06-10T06:40:24;22.70;99.90
4081;DHT22;2055;50.074;8.436;2023-06-10T06:42:49;22.80;99.90
4081;DHT22;2055;50.074;8.436;2023-06-10T06:45:15;22.70;99.90
4081;DHT22;2055;50.074;8.436;2023-06-10T06:47:41;22.90;99.90
4081;DHT22;2055;50.074;8.436;2023-06-10T06:50:06;22.80;99.90
4081;DHT22;2055;50.074;8.436;2023-06-10T06:52:32;23.00;99.90
4081;DHT22;2055;50.074;8.436;2023-06-10T06:54:57;23.00;99.90
4081;DHT22;2055;50.074;8.436;2023-06-10T06:57:23;23.10;99.90
4081;DHT22;2055;50.074;8.436;2023-06-10T06:59:49;23.30;99.90
4081;DHT22;2055;50.074;8.436;2023-06-10T07:02:14;23.20;99.90
4081;DHT22;2055;50.074;8.436;2023-06-10T07:04:40;23.20;99.90
4081;DHT22;2055;50.074;8.436;2023-06-10T07:07:07;23.30;99.90
4081;DHT22;2055;50.074;8.436;2023-06-10T07:09:34;23.20;99.90
4081;DHT22;2055;50.074;8.436;2023-06-10T07:11:59;23.40;99.90
4081;DHT22;2055;50.074;8.436;2023-06-10T07:14:26;23.50;99.90
4081;DHT22;2055;50.074;8.436;2023-06-10T07:16:51;23.60;99.90
4081;DHT22;2055;50.074;8.436;2023-06-10T07:19:17;23.70;99.90
4081;DHT22;2055;50.074;8.436;2023-06-10T07:21:42;23.70;99.90
4081;DHT22;2055;50.074;8.436;2023-06-10T07:24:08;23.70;99.90
4081;DHT22;2055;50.074;8.436;2023-06-10T07:26:33;23.70;99.90
4081;DHT22;2055;50.074;8.436;2023-06-10T07:28:59;23.80;99.90
4081;DHT22;2055;50.074;8.436;2023-06-10T07:31:24;23.90;99.90
4081;DHT22;2055;50.074;8.436;2023-06-10T07:33:50;24.00;99.90
4081;DHT22;2055;50.074;8.436;2023-06-10T07:36:16;24.00;99.90
4081;DHT22;2055;50.074;8.436;2023-06-10T07:38:41;24.10;99.90
4081;DHT22;2055;50.074;8.436;2023-06-10T07:41:08;24.10;99.90
4081;DHT22;2055;50.074;8.436;2023-06-10T07:43:34;24.20;99.90
4081;DHT22;2055;50.074;8.436;2023-06-10T07:46:00;24.30;99.90
4081;DHT22;2055;50.074;8.436;2023-06-10T07:48:25;24.20;99.90
4081;DHT22;2055;50.074;8.436;2023-06-10T07:50:51;24.20;99.90
4081;DHT22;2055;50.074;8.436;2023-06-10T07:53:17;24.50;99.90
4081;DHT22;2055;50.074;8.436;2023-06-10T07:55:43;24.50;99.90
4081;DHT22;2055;50.074;8.436;2023-06-10T07:58:08;24.50;99.90
4081;DHT22;2055;50.074;8.436;2023-06-10T08:00:34;24.70;99.90
4081;DHT22;2055;50.074;8.436;2023-06-10T08:02:59;24.60;99.90
4081;DHT22;2055;50.074;8.436;2023-06-10T08:05:25;24.50;99.90
4081;DHT22;2055;50.074;8.436;2023-06-10T08:07:52;24.60;99.90
4081;DHT22;2055;50.074;8.436;2023-06-10T08:10:17;24.70;99.90
4081;DHT22;2055;50.074;8.436;2023-06-10T08:12:43;24.80;99.90
4081;DHT22;2055;50.074;8.436;2023-06-10T08:15:09;25.00;99.90
4081;DHT22;2055;50.074;8.436;2023-06-10T08:17:34;25.00;99.90
4081;DHT22;2055;50.074;8.436;2023-06-10T08:20:01;25.00;99.90
4081;DHT22;2055;50.074;8.436;2023-06-10T08:22:26;25.20;99.90
4081;DHT22;2055;50.074;8.436;2023-06-10T08:24:52;25.20;99.90
4081;DHT22;2055;50.074;8.436;2023-06-10T08:27:18;25.20;99.90
4081;DHT22;2055;50.074;8.436;2023-06-10T08:29:43;25.40;99.90
4081;DHT22;2055;50.074;8.436;2023-06-10T08:32:10;25.40;99.90
4081;DHT22;2055;50.074;8.436;2023-06-10T08:34:35;25.80;99.90
4081;DHT22;2055;50.074;8.436;2023-06-10T08:37:02;25.70;99.90
4081;DHT22;2055;50.074;8.436;2023-06-10T08:39:27;25.70;99.90
4081;DHT22;2055;50.074;8.436;2023-06-10T08:42:09;25.60;99.90
4081;DHT22;2055;50.074;8.436;2023-06-10T08:44:36;25.50;99.90
4081;DHT22;2055;50.074;8.436;2023-06-10T08:47:15;25.80;99.90
4081;DHT22;2055;50.074;8.436;2023-06-10T08:49:45;25.80;99.90
4081;DHT22;2055;50.074;8.436;2023-06-10T08:52:19;25.80;99.90
4081;DHT22;2055;50.074;8.436;2023-06-10T08:54:59;25.90;99.90
4081;DHT22;2055;50.074;8.436;2023-06-10T08:57:26;26.00;99.90
4081;DHT22;2055;50.074;8.436;2023-06-10T08:59:53;26.00;99.90
4081;DHT22;2055;50.074;8.436;2023-06-10T09:02:22;26.20;99.90
4081;DHT22;2055;50.074;8.436;2023-06-10T09:04:49;26.40;99.90
4081;DHT22;2055;50.074;8.436;2023-06-10T09:07:18;26.60;99.90
4081;DHT22;2055;50.074;8.436;2023-06-10T09:09:44;26.60;99.90
4081;DHT22;2055;50.074;8.436;2023-06-10T09:12:12;26.60;99.90
4081;DHT22;2055;50.074;8.436;2023-06-10T09:14:38;26.70;99.90
4081;DHT22;2055;50.074;8.436;2023-06-10T09:17:04;26.60;99.90
4081;DHT22;2055;50.074;8.436;2023-06-10T09:19:30;26.50;99.90
4081;DHT22;2055;50.074;8.436;2023-06-10T09:21:56;26.70;99.90
4081;DHT22;2055;50.074;8.436;2023-06-10T09:24:22;26.70;99.90
4081;DHT22;2055;50.074;8.436;2023-06-10T09:26:49;26.90;99.90
4081;DHT22;2055;50.074;8.436;2023-06-10T09:29:16;27.20;99.90
4081;DHT22;2055;50.074;8.436;2023-06-10T09:31:43;27.60;99.90
4081;DHT22;2055;50.074;8.436;2023-06-10T09:34:11;27.90;99.90
4081;DHT22;2055;50.074;8.436;2023-06-10T09:36:37;27.90;99.90
4081;DHT22;2055;50.074;8.436;2023-06-10T09:39:03;27.90;99.90
4081;DHT22;2055;50.074;8.436;2023-06-10T09:41:40;28.30;99.90
4081;DHT22;2055;50.074;8.436;2023-06-10T09:44:14;28.60;99.90
4081;DHT22;2055;50.074;8.436;2023-06-10T09:46:40;28.60;99.90
4081;DHT22;2055;50.074;8.436;2023-06-10T09:49:06;28.70;99.90
4081;DHT22;2055;50.074;8.436;2023-06-10T09:51:32;28.80;99.90
4081;DHT22;2055;50.074;8.436;2023-06-10T09:53:58;29.20;99.90
4081;DHT22;2055;50.074;8.436;2023-06-10T09:56:36;29.10;99.90
4081;DHT22;2055;50.074;8.436;2023-06-10T09:59:03;29.10;99.90
4081;DHT22;2055;50.074;8.436;2023-06-10T10:01:31;28.70;99.90
4081;DHT22;2055;50.074;8.436;2023-06-10T10:03:58;28.70;99.90
4081;DHT22;2055;50.074;8.436;2023-06-10T10:06:24;29.10;99.90
4081;DHT22;2055;50.074;8.436;2023-06-10T10:08:50;29.50;99.90
4081;DHT22;2055;50.074;8.436;2023-06-10T10:11:17;29.70;99.90
4081;DHT22;2055;50.074;8.436;2023-06-10T10:13:45;29.60;99.90
4081;DHT22;2055;50.074;8.436;2023-06-10T10:16:40;29.80;99.90
4081;DHT22;2055;50.074;8.436;2023-06-10T10:19:20;29.50;99.90
4081;DHT22;2055;50.074;8.436;2023-06-10T10:22:10;29.50;99.90
4081;DHT22;2055;50.074;8.436;2023-06-10T10:24:45;29.60;99.90
4081;DHT22;2055;50.074;8.436;2023-06-10T10:27:18;29.90;99.60
4081;DHT22;2055;50.074;8.436;2023-06-10T10:29:46;30.30;99.90
4081;DHT22;2055;50.074;8.436;2023-06-10T10:32:13;30.20;99.60
4081;DHT22;2055;50.074;8.436;2023-06-10T10:34:49;30.70;98.40
4081;DHT22;2055;50.074;8.436;2023-06-10T10:37:17;30.20;97.80
4081;DHT22;2055;50.074;8.436;2023-06-10T10:39:43;29.70;97.50
4081;DHT22;2055;50.074;8.436;2023-06-10T10:42:09;29.90;98.30
4081;DHT22;2055;50.074;8.436;2023-06-10T10:44:39;30.20;98.00
4081;DHT22;2055;50.074;8.436;2023-06-10T10:47:08;30.10;97.10
4081;DHT22;2055;50.074;8.436;2023-06-10T10:49:35;30.20;95.90
4081;DHT22;2055;50.074;8.436;2023-06-10T10:52:02;30.20;97.10
4081;DHT22;2055;50.074;8.436;2023-06-10T10:54:32;30.70;96.10
4081;DHT22;2055;50.074;8.436;2023-06-10T10:57:17;30.60;95.70
4081;DHT22;2055;50.074;8.436;2023-06-10T10:59:55;30.80;95.90
4081;DHT22;2055;50.074;8.436;2023-06-10T11:02:35;30.50;96.00
4081;DHT22;2055;50.074;8.436;2023-06-10T11:05:01;30.10;95.90
4081;DHT22;2055;50.074;8.436;2023-06-10T11:07:32;29.90;97.90
4081;DHT22;2055;50.074;8.436;2023-06-10T11:10:02;30.30;98.00
4081;DHT22;2055;50.074;8.436;2023-06-10T11:15:13;31.00;94.80
4081;DHT22;2055;50.074;8.436;2023-06-10T11:18:14;30.80;95.10
4081;DHT22;2055;50.074;8.436;2023-06-10T11:34:02;31.60;93.20
4081;DHT22;2055;50.074;8.436;2023-06-10T11:36:29;31.50;92.80
4081;DHT22;2055;50.074;8.436;2023-06-10T11:39:04;31.20;92.10
4081;DHT22;2055;50.074;8.436;2023-06-10T11:41:32;31.50;94.30
4081;DHT22;2055;50.074;8.436;2023-06-10T11:44:13;31.80;91.70
4081;DHT22;2055;50.074;8.436;2023-06-10T11:46:40;31.90;93.40
4081;DHT22;2055;50.074;8.436;2023-06-10T11:49:07;32.40;92.10
4081;DHT22;2055;50.074;8.436;2023-06-10T11:51:35;33.00;91.60
4081;DHT22;2055;50.074;8.436;2023-06-10T11:54:01;32.70;90.30
4081;DHT22;2055;50.074;8.436;2023-06-10T11:56:28;32.90;90.00
4081;DHT22;2055;50.074;8.436;2023-06-10T11:58:55;32.50;86.30
4081;DHT22;2055;50.074;8.436;2023-06-10T12:01:25;32.40;86.70
4081;DHT22;2055;50.074;8.436;2023-06-10T12:04:05;32.00;84.50
4081;DHT22;2055;50.074;8.436;2023-06-10T12:06:57;32.30;84.60
4081;DHT22;2055;50.074;8.436;2023-06-10T12:09:25;32.80;83.50
4081;DHT22;2055;50.074;8.436;2023-06-10T12:12:04;32.50;86.20
4081;DHT22;2055;50.074;8.436;2023-06-10T12:14:54;32.70;82.20
4081;DHT22;2055;50.074;8.436;2023-06-10T12:17:21;32.90;84.30
4081;DHT22;2055;50.074;8.436;2023-06-10T12:19:48;32.60;80.40
4081;DHT22;2055;50.074;8.436;2023-06-10T12:22:14;32.10;79.30
4081;DHT22;2055;50.074;8.436;2023-06-10T12:24:57;32.20;81.90
4081;DHT22;2055;50.074;8.436;2023-06-10T12:27:25;32.50;78.30
4081;DHT22;2055;50.074;8.436;2023-06-10T12:29:51;33.10;80.00
4081;DHT22;2055;50.074;8.436;2023-06-10T12:32:20;33.10;77.70
4081;DHT22;2055;50.074;8.436;2023-06-10T12:34:48;33.20;81.10
4081;DHT22;2055;50.074;8.436;2023-06-10T12:37:13;33.50;79.00
4081;DHT22;2055;50.074;8.436;2023-06-10T12:39:40;32.90;79.10
4081;DHT22;2055;50.074;8.436;2023-06-10T12:42:06;32.10;78.50
4081;DHT22;2055;50.074;8.436;2023-06-10T12:44:38;31.60;80.40
4081;DHT22;2055;50.074;8.436;2023-06-10T12:47:10;31.60;80.90
4081;DHT22;2055;50.074;8.436;2023-06-10T12:49:37;31.60;79.30
4081;DHT22;2055;50.074;8.436;2023-06-10T12:52:04;32.00;79.70
4081;DHT22;2055;50.074;8.436;2023-06-10T12:54:30;32.10;80.70
4081;DHT22;2055;50.074;8.436;2023-06-10T12:56:55;33.10;82.00
4081;DHT22;2055;50.074;8.436;2023-06-10T12:59:21;34.10;78.60
4081;DHT22;2055;50.074;8.436;2023-06-10T13:01:51;33.90;75.40
4081;DHT22;2055;50.074;8.436;2023-06-10T13:04:17;33.40;76.90
4081;DHT22;2055;50.074;8.436;2023-06-10T13:06:43;33.10;76.80
4081;DHT22;2055;50.074;8.436;2023-06-10T13:09:09;33.00;77.20
4081;DHT22;2055;50.074;8.436;2023-06-10T13:11:36;32.40;77.60
4081;DHT22;2055;50.074;8.436;2023-06-10T13:14:02;32.00;79.50
4081;DHT22;2055;50.074;8.436;2023-06-10T13:16:28;31.40;77.50
4081;DHT22;2055;50.074;8.436;2023-06-10T13:18:54;30.30;76.90
4081;DHT22;2055;50.074;8.436;2023-06-10T13:21:19;30.00;78.00
4081;DHT22;2055;50.074;8.436;2023-06-10T13:23:45;29.70;79.50
4081;DHT22;2055;50.074;8.436;2023-06-10T13:26:13;29.30;80.30
4081;DHT22;2055;50.074;8.436;2023-06-10T13:28:39;29.60;81.80
4081;DHT22;2055;50.074;8.436;2023-06-10T13:31:05;29.90;80.80
4081;DHT22;2055;50.074;8.436;2023-06-10T13:33:30;29.60;80.00
4081;DHT22;2055;50.074;8.436;2023-06-10T13:35:56;29.80;82.10
4081;DHT22;2055;50.074;8.436;2023-06-10T13:38:21;30.00;82.50
4081;DHT22;2055;50.074;8.436;2023-06-10T13:40:47;31.20;80.10
4081;DHT22;2055;50.074;8.436;2023-06-10T13:43:12;31.80;79.10
4081;DHT22;2055;50.074;8.436;2023-06-10T13:45:38;32.00;75.20
4081;DHT22;2055;50.074;8.436;2023-06-10T13:48:04;32.60;74.50
4081;DHT22;2055;50.074;8.436;2023-06-10T13:50:31;32.90;77.60
4081;DHT22;2055;50.074;8.436;2023-06-10T13:52:56;33.50;75.50
4081;DHT22;2055;50.074;8.436;2023-06-10T13:55:22;34.00;75.60
4081;DHT22;2055;50.074;8.436;2023-06-10T13:57:49;34.30;75.20
4081;DHT22;2055;50.074;8.436;2023-06-10T14:00:15;35.00;76.70
4081;DHT22;2055;50.074;8.436;2023-06-10T14:02:41;35.30;74.60
4081;DHT22;2055;50.074;8.436;2023-06-10T14:05:07;34.70;74.50
4081;DHT22;2055;50.074;8.436;2023-06-10T14:07:33;35.00;72.90
4081;DHT22;2055;50.074;8.436;2023-06-10T14:09:59;34.50;71.40
4081;DHT22;2055;50.074;8.436;2023-06-10T14:12:25;34.20;74.90
4081;DHT22;2055;50.074;8.436;2023-06-10T14:14:51;33.00;72.80
4081;DHT22;2055;50.074;8.436;2023-06-10T14:17:16;31.70;73.70
4081;DHT22;2055;50.074;8.436;2023-06-10T14:19:42;30.70;75.30
4081;DHT22;2055;50.074;8.436;2023-06-10T14:22:07;30.20;77.00
4081;DHT22;2055;50.074;8.436;2023-06-10T14:24:33;30.10;77.10
4081;DHT22;2055;50.074;8.436;2023-06-10T14:27:00;30.70;77.90
4081;DHT22;2055;50.074;8.436;2023-06-10T14:29:25;32.20;76.20
4081;DHT22;2055;50.074;8.436;2023-06-10T14:31:54;33.40;75.40
4081;DHT22;2055;50.074;8.436;2023-06-10T14:34:20;34.10;73.70
4081;DHT22;2055;50.074;8.436;2023-06-10T14:36:45;34.20;72.80
4081;DHT22;2055;50.074;8.436;2023-06-10T14:39:11;35.00;73.90
4081;DHT22;2055;50.074;8.436;2023-06-10T14:41:36;35.20;72.50
4081;DHT22;2055;50.074;8.436;2023-06-10T14:44:02;36.80;73.70
4081;DHT22;2055;50.074;8.436;2023-06-10T14:46:28;34.80;69.90
4081;DHT22;2055;50.074;8.436;2023-06-10T14:48:53;34.40;69.00
4081;DHT22;2055;50.074;8.436;2023-06-10T14:51:19;34.30;67.80
4081;DHT22;2055;50.074;8.436;2023-06-10T14:53:46;34.40;67.30
4081;DHT22;2055;50.074;8.436;2023-06-10T14:56:12;34.50;68.40
4081;DHT22;2055;50.074;8.436;2023-06-10T14:58:37;34.10;68.10
4081;DHT22;2055;50.074;8.436;2023-06-10T15:01:03;34.20;68.30
4081;DHT22;2055;50.074;8.436;2023-06-10T15:03:29;33.80;66.80
4081;DHT22;2055;50.074;8.436;2023-06-10T15:05:54;34.60;68.90
4081;DHT22;2055;50.074;8.436;2023-06-10T15:08:20;33.90;68.00
4081;DHT22;2055;50.074;8.436;2023-06-10T15:10:45;34.40;69.10
4081;DHT22;2055;50.074;8.436;2023-06-10T15:13:13;34.50;67.80
4081;DHT22;2055;50.074;8.436;2023-06-10T15:15:39;35.00;68.90
4081;DHT22;2055;50.074;8.436;2023-06-10T15:18:04;35.20;68.30
4081;DHT22;2055;50.074;8.436;2023-06-10T15:20:30;34.90;66.60
4081;DHT22;2055;50.074;8.436;2023-06-10T15:22:55;34.40;65.70
4081;DHT22;2055;50.074;8.436;2023-06-10T15:25:21;34.60;66.10
4081;DHT22;2055;50.074;8.436;2023-06-10T15:27:47;35.20;66.80
4081;DHT22;2055;50.074;8.436;2023-06-10T15:30:12;35.70;68.20
4081;DHT22;2055;50.074;8.436;2023-06-10T15:32:38;35.60;65.40
4081;DHT22;2055;50.074;8.436;2023-06-10T15:35:03;35.40;66.20
4081;DHT22;2055;50.074;8.436;2023-06-10T15:37:29;35.20;64.30
4081;DHT22;2055;50.074;8.436;2023-06-10T15:39:55;34.50;66.20
4081;DHT22;2055;50.074;8.436;2023-06-10T15:42:20;34.40;66.70
4081;DHT22;2055;50.074;8.436;2023-06-10T15:44:46;34.80;65.20
4081;DHT22;2055;50.074;8.436;2023-06-10T15:47:11;34.90;65.60
4081;DHT22;2055;50.074;8.436;2023-06-10T15:49:37;34.70;64.00
4081;DHT22;2055;50.074;8.436;2023-06-10T15:52:03;34.50;63.70
4081;DHT22;2055;50.074;8.436;2023-06-10T15:54:28;34.20;62.60
4081;DHT22;2055;50.074;8.436;2023-06-10T15:56:54;34.00;63.20
4081;DHT22;2055;50.074;8.436;2023-06-10T15:59:19;32.90;62.90
4081;DHT22;2055;50.074;8.436;2023-06-10T16:01:45;32.60;63.90
4081;DHT22;2055;50.074;8.436;2023-06-10T16:04:12;32.40;64.10
4081;DHT22;2055;50.074;8.436;2023-06-10T16:06:37;33.30;66.40
4081;DHT22;2055;50.074;8.436;2023-06-10T16:09:03;34.00;65.30
4081;DHT22;2055;50.074;8.436;2023-06-10T16:11:28;33.40;63.40
4081;DHT22;2055;50.074;8.436;2023-06-10T16:13:54;32.90;63.90
4081;DHT22;2055;50.074;8.436;2023-06-10T16:16:20;33.10;64.80
4081;DHT22;2055;50.074;8.436;2023-06-10T16:18:45;33.10;65.90